sensor_id;sensor_type;location;lat;lon;timestamp;P1;durP1;ratioP1;P2;durP2;ratioP2
25868;SDS011;13688;53.154;18.136;2022-10-16T00:04:50;46.85;;;32.83;;
25868;SDS011;13688;53.154;18.136;2022-10-16T00:10:12;50.05;;;32.03;;
25868;SDS011;13688;53.154;18.136;2022-10-16T00:15:38;48.33;;;31.77;;
25868;SDS011;13688;53.154;18.136;2022-10-16T00:21:06;45.43;;;32.08;;
25868;SDS011;13688;53.154;18.136;2022-10-16T00:26:29;46.13;;;31.47;;
25868;SDS011;13688;53.154;18.136;2022-10-16T00:31:52;46.35;;;31.35;;
25868;SDS011;13688;53.154;18.136;2022-10-16T00:37:14;49.03;;;32.35;;
25868;SDS011;13688;53.154;18.136;2022-10-16T00:42:36;47.25;;;33.00;;
25868;SDS011;13688;53.154;18.136;2022-10-16T00:47:59;47.43;;;31.75;;
25868;SDS011;13688;53.154;18.136;2022-10-16T00:53:23;42.75;;;30.77;;
25868;SDS011;13688;53.154;18.136;2022-10-16T00:58:46;41.90;;;29.42;;
25868;SDS011;13688;53.154;18.136;2022-10-16T01:04:09;45.38;;;30.30;;
25868;SDS011;13688;53.154;18.136;2022-10-16T01:09:34;44.85;;;30.57;;
25868;SDS011;13688;53.154;18.136;2022-10-16T01:15:17;44.58;;;30.35;;
25868;SDS011;13688;53.154;18.136;2022-10-16T01:21:04;44.25;;;30.35;;
25868;SDS011;13688;53.154;18.136;2022-10-16T01:38:34;44.42;;;30.43;;
25868;SDS011;13688;53.154;18.136;2022-10-16T01:49:31;43.27;;;28.23;;
25868;SDS011;13688;53.154;18.136;2022-10-16T01:54:55;38.02;;;27.25;;
25868;SDS011;13688;53.154;18.136;2022-10-16T02:00:20;39.73;;;28.12;;
25868;SDS011;13688;53.154;18.136;2022-10-16T02:05:49;40.60;;;28.83;;
25868;SDS011;13688;53.154;18.136;2022-10-16T02:11:12;38.15;;;27.40;;
25868;SDS011;13688;53.154;18.136;2022-10-16T02:16:36;38.25;;;25.97;;
25868;SDS011;13688;53.154;18.136;2022-10-16T02:22:01;39.00;;;27.58;;
25868;SDS011;13688;53.154;18.136;2022-10-16T02:33:40;41.53;;;26.73;;
25868;SDS011;13688;53.154;18.136;2022-10-16T02:39:06;34.70;;;25.40;;
25868;SDS011;13688;53.154;18.136;2022-10-16T02:44:30;36.43;;;25.60;;
25868;SDS011;13688;53.154;18.136;2022-10-16T02:49:52;36.33;;;25.73;;
25868;SDS011;13688;53.154;18.136;2022-10-16T02:55:14;38.70;;;25.73;;
25868;SDS011;13688;53.154;18.136;2022-10-16T03:00:37;38.53;;;25.57;;
25868;SDS011;13688;53.154;18.136;2022-10-16T03:05:59;41.17;;;25.07;;
25868;SDS011;13688;53.154;18.136;2022-10-16T03:11:22;39.27;;;25.73;;
25868;SDS011;13688;53.154;18.136;2022-10-16T03:16:44;39.80;;;25.50;;
25868;SDS011;13688;53.154;18.136;2022-10-16T03:22:07;34.37;;;24.77;;
25868;SDS011;13688;53.154;18.136;2022-10-16T03:27:30;36.83;;;25.27;;
25868;SDS011;13688;53.154;18.136;2022-10-16T03:32:52;34.03;;;23.90;;
25868;SDS011;13688;53.154;18.136;2022-10-16T03:38:14;32.15;;;24.00;;
25868;SDS011;13688;53.154;18.136;2022-10-16T03:43:37;32.80;;;23.55;;
25868;SDS011;13688;53.154;18.136;2022-10-16T03:48:59;35.13;;;24.35;;
25868;SDS011;13688;53.154;18.136;2022-10-16T03:54:21;37.95;;;24.55;;
25868;SDS011;13688;53.154;18.136;2022-10-16T03:59:43;36.77;;;24.27;;
25868;SDS011;13688;53.154;18.136;2022-10-16T04:05:06;34.77;;;23.90;;
25868;SDS011;13688;53.154;18.136;2022-10-16T04:10:28;33.80;;;23.30;;
25868;SDS011;13688;53.154;18.136;2022-10-16T04:15:52;34.90;;;24.13;;
25868;SDS011;13688;53.154;18.136;2022-10-16T04:21:14;30.87;;;21.97;;
25868;SDS011;13688;53.154;18.136;2022-10-16T04:26:36;30.97;;;21.67;;
25868;SDS011;13688;53.154;18.136;2022-10-16T04:31:59;34.95;;;22.37;;
25868;SDS011;13688;53.154;18.136;2022-10-16T04:37:24;34.43;;;22.27;;
25868;SDS011;13688;53.154;18.136;2022-10-16T04:42:46;32.10;;;22.52;;
25868;SDS011;13688;53.154;18.136;2022-10-16T04:48:09;35.65;;;21.87;;
25868;SDS011;13688;53.154;18.136;2022-10-16T04:53:31;37.33;;;23.02;;
25868;SDS011;13688;53.154;18.136;2022-10-16T04:58:54;31.17;;;22.23;;
25868;SDS011;13688;53.154;18.136;2022-10-16T05:04:16;32.83;;;22.47;;
25868;SDS011;13688;53.154;18.136;2022-10-16T05:09:39;32.40;;;21.93;;
25868;SDS011;13688;53.154;18.136;2022-10-16T05:15:01;31.35;;;22.45;;
25868;SDS011;13688;53.154;18.136;2022-10-16T05:20:24;36.97;;;23.53;;
25868;SDS011;13688;53.154;18.136;2022-10-16T05:25:53;32.88;;;22.62;;
25868;SDS011;13688;53.154;18.136;2022-10-16T05:31:15;34.63;;;23.83;;
25868;SDS011;13688;53.154;18.136;2022-10-16T05:36:38;34.48;;;22.42;;
25868;SDS011;13688;53.154;18.136;2022-10-16T05:42:00;31.37;;;21.43;;
25868;SDS011;13688;53.154;18.136;2022-10-16T05:47:22;31.70;;;21.42;;
25868;SDS011;13688;53.154;18.136;2022-10-16T05:52:45;29.65;;;21.07;;
25868;SDS011;13688;53.154;18.136;2022-10-16T05:58:08;28.30;;;21.40;;
25868;SDS011;13688;53.154;18.136;2022-10-16T06:03:31;29.83;;;21.43;;
25868;SDS011;13688;53.154;18.136;2022-10-16T06:08:54;30.00;;;20.37;;
25868;SDS011;13688;53.154;18.136;2022-10-16T06:14:17;28.57;;;21.00;;
25868;SDS011;13688;53.154;18.136;2022-10-16T06:19:39;28.63;;;20.50;;
25868;SDS011;13688;53.154;18.136;2022-10-16T06:25:02;30.00;;;20.65;;
25868;SDS011;13688;53.154;18.136;2022-10-16T06:30:24;26.70;;;20.00;;
25868;SDS011;13688;53.154;18.136;2022-10-16T06:36:03;25.30;;;19.87;;
25868;SDS011;13688;53.154;18.136;2022-10-16T06:41:28;26.83;;;19.63;;
25868;SDS011;13688;53.154;18.136;2022-10-16T06:46:51;26.52;;;19.37;;
25868;SDS011;13688;53.154;18.136;2022-10-16T06:52:13;24.30;;;18.80;;
25868;SDS011;13688;53.154;18.136;2022-10-16T06:57:37;26.87;;;18.40;;
25868;SDS011;13688;53.154;18.136;2022-10-16T07:02:59;26.93;;;19.43;;
25868;SDS011;13688;53.154;18.136;2022-10-16T07:08:22;29.93;;;18.90;;
25868;SDS011;13688;53.154;18.136;2022-10-16T07:13:47;24.80;;;18.63;;
25868;SDS011;13688;53.154;18.136;2022-10-16T07:19:10;24.70;;;18.47;;
25868;SDS011;13688;53.154;18.136;2022-10-16T07:24:35;25.73;;;18.40;;
25868;SDS011;13688;53.154;18.136;2022-10-16T07:29:58;30.35;;;18.30;;
25868;SDS011;13688;53.154;18.136;2022-10-16T07:35:21;23.47;;;18.27;;
25868;SDS011;13688;53.154;18.136;2022-10-16T07:40:43;24.35;;;16.07;;
25868;SDS011;13688;53.154;18.136;2022-10-16T07:46:07;20.93;;;15.93;;
25868;SDS011;13688;53.154;18.136;2022-10-16T07:51:31;21.45;;;14.87;;
25868;SDS011;13688;53.154;18.136;2022-10-16T07:56:54;21.03;;;15.47;;
25868;SDS011;13688;53.154;18.136;2022-10-16T08:02:17;23.50;;;17.07;;
25868;SDS011;13688;53.154;18.136;2022-10-16T08:07:41;26.12;;;18.25;;
25868;SDS011;13688;53.154;18.136;2022-10-16T08:13:06;25.75;;;20.32;;
25868;SDS011;13688;53.154;18.136;2022-10-16T08:18:28;24.50;;;19.00;;
25868;SDS011;13688;53.154;18.136;2022-10-16T08:23:50;19.27;;;15.40;;
25868;SDS011;13688;53.154;18.136;2022-10-16T08:29:13;18.30;;;12.30;;
25868;SDS011;13688;53.154;18.136;2022-10-16T08:34:36;15.03;;;13.03;;
25868;SDS011;13688;53.154;18.136;2022-10-16T08:39:58;17.62;;;13.10;;
25868;SDS011;13688;53.154;18.136;2022-10-16T08:45:51;19.27;;;14.13;;
25868;SDS011;13688;53.154;18.136;2022-10-16T08:51:24;20.92;;;15.85;;
25868;SDS011;13688;53.154;18.136;2022-10-16T08:56:53;17.70;;;12.88;;
25868;SDS011;13688;53.154;18.136;2022-10-16T09:02:23;11.50;;;9.30;;
25868;SDS011;13688;53.154;18.136;2022-10-16T09:13:35;12.10;;;9.30;;
25868;SDS011;13688;53.154;18.136;2022-10-16T09:19:05;11.53;;;8.48;;
25868;SDS011;13688;53.154;18.136;2022-10-16T09:24:43;11.30;;;8.40;;
25868;SDS011;13688;53.154;18.136;2022-10-16T09:30:17;11.57;;;8.43;;
25868;SDS011;13688;53.154;18.136;2022-10-16T09:35:48;9.43;;;8.18;;
25868;SDS011;13688;53.154;18.136;2022-10-16T09:41:13;15.77;;;7.80;;
25868;SDS011;13688;53.154;18.136;2022-10-16T09:46:35;11.48;;;7.87;;
25868;SDS011;13688;53.154;18.136;2022-10-16T09:52:04;8.33;;;7.53;;
25868;SDS011;13688;53.154;18.136;2022-10-16T09:57:28;8.33;;;7.53;;
25868;SDS011;13688;53.154;18.136;2022-10-16T10:03:01;9.13;;;7.70;;
25868;SDS011;13688;53.154;18.136;2022-10-16T10:08:32;8.60;;;7.37;;
25868;SDS011;13688;53.154;18.136;2022-10-16T10:14:21;9.30;;;6.63;;
25868;SDS011;13688;53.154;18.136;2022-10-16T10:19:59;9.43;;;7.03;;
25868;SDS011;13688;53.154;18.136;2022-10-16T10:37:20;7.80;;;6.70;;
25868;SDS011;13688;53.154;18.136;2022-10-16T10:43:18;12.93;;;7.10;;
25868;SDS011;13688;53.154;18.136;2022-10-16T10:49:16;12.37;;;6.50;;
25868;SDS011;13688;53.154;18.136;2022-10-16T11:06:35;6.73;;;6.07;;
25868;SDS011;13688;53.154;18.136;2022-10-16T11:12:21;8.50;;;5.53;;
25868;SDS011;13688;53.154;18.136;2022-10-16T11:23:55;6.67;;;5.63;;
25868;SDS011;13688;53.154;18.136;2022-10-16T11:29:22;7.93;;;5.57;;
25868;SDS011;13688;53.154;18.136;2022-10-16T11:34:50;5.77;;;4.67;;
25868;SDS011;13688;53.154;18.136;2022-10-16T11:40:24;9.83;;;5.27;;
25868;SDS011;13688;53.154;18.136;2022-10-16T11:45:54;6.83;;;4.90;;
25868;SDS011;13688;53.154;18.136;2022-10-16T11:51:36;6.35;;;5.08;;
25868;SDS011;13688;53.154;18.136;2022-10-16T11:57:10;7.47;;;6.10;;
25868;SDS011;13688;53.154;18.136;2022-10-16T12:02:40;14.10;;;6.70;;
25868;SDS011;13688;53.154;18.136;2022-10-16T12:08:26;10.90;;;5.72;;
25868;SDS011;13688;53.154;18.136;2022-10-16T12:14:03;13.28;;;6.20;;
25868;SDS011;13688;53.154;18.136;2022-10-16T12:19:34;8.30;;;5.57;;
25868;SDS011;13688;53.154;18.136;2022-10-16T12:25:27;7.00;;;5.30;;
25868;SDS011;13688;53.154;18.136;2022-10-16T12:30:54;6.87;;;5.05;;
25868;SDS011;13688;53.154;18.136;2022-10-16T12:36:26;6.90;;;5.37;;
25868;SDS011;13688;53.154;18.136;2022-10-16T12:42:37;7.70;;;4.83;;
25868;SDS011;13688;53.154;18.136;2022-10-16T12:47:47;5.25;;;4.50;;
25868;SDS011;13688;53.154;18.136;2022-10-16T12:53:21;5.78;;;4.72;;
25868;SDS011;13688;53.154;18.136;2022-10-16T13:16:33;7.80;;;4.80;;
25868;SDS011;13688;53.154;18.136;2022-10-16T13:28:16;8.10;;;5.20;;
25868;SDS011;13688;53.154;18.136;2022-10-16T13:33:43;8.90;;;5.65;;
25868;SDS011;13688;53.154;18.136;2022-10-16T13:39:15;9.73;;;5.92;;
25868;SDS011;13688;53.154;18.136;2022-10-16T13:44:43;8.38;;;5.70;;
25868;SDS011;13688;53.154;18.136;2022-10-16T13:50:12;10.93;;;5.40;;
25868;SDS011;13688;53.154;18.136;2022-10-16T13:55:35;6.77;;;5.00;;
25868;SDS011;13688;53.154;18.136;2022-10-16T14:00:58;9.40;;;4.93;;
25868;SDS011;13688;53.154;18.136;2022-10-16T14:06:45;6.87;;;4.57;;
25868;SDS011;13688;53.154;18.136;2022-10-16T14:12:08;8.83;;;5.23;;
25868;SDS011;13688;53.154;18.136;2022-10-16T14:17:32;5.63;;;4.63;;
25868;SDS011;13688;53.154;18.136;2022-10-16T14:23:18;8.43;;;4.47;;
25868;SDS011;13688;53.154;18.136;2022-10-16T14:28:41;5.77;;;4.40;;
25868;SDS011;13688;53.154;18.136;2022-10-16T14:34:31;10.23;;;4.37;;
25868;SDS011;13688;53.154;18.136;2022-10-16T14:40:03;9.83;;;4.53;;
25868;SDS011;13688;53.154;18.136;2022-10-16T14:45:27;10.97;;;5.67;;
25868;SDS011;13688;53.154;18.136;2022-10-16T14:50:51;12.03;;;5.20;;
25868;SDS011;13688;53.154;18.136;2022-10-16T14:56:22;7.03;;;4.70;;
25868;SDS011;13688;53.154;18.136;2022-10-16T15:01:54;7.10;;;4.67;;
25868;SDS011;13688;53.154;18.136;2022-10-16T15:07:29;7.25;;;4.35;;
25868;SDS011;13688;53.154;18.136;2022-10-16T15:12:52;5.77;;;4.40;;
25868;SDS011;13688;53.154;18.136;2022-10-16T15:18:15;14.40;;;5.65;;
25868;SDS011;13688;53.154;18.136;2022-10-16T15:23:37;13.35;;;6.08;;
25868;SDS011;13688;53.154;18.136;2022-10-16T15:28:59;8.20;;;5.50;;
25868;SDS011;13688;53.154;18.136;2022-10-16T15:34:22;10.40;;;5.73;;
25868;SDS011;13688;53.154;18.136;2022-10-16T15:39:44;10.48;;;5.37;;
25868;SDS011;13688;53.154;18.136;2022-10-16T15:45:07;6.55;;;4.37;;
25868;SDS011;13688;53.154;18.136;2022-10-16T15:50:32;48.00;;;36.63;;
25868;SDS011;13688;53.154;18.136;2022-10-16T15:55:55;9.25;;;7.00;;
25868;SDS011;13688;53.154;18.136;2022-10-16T16:01:20;9.00;;;6.62;;
25868;SDS011;13688;53.154;18.136;2022-10-16T16:06:44;9.67;;;6.23;;
25868;SDS011;13688;53.154;18.136;2022-10-16T16:12:07;9.87;;;6.33;;
25868;SDS011;13688;53.154;18.136;2022-10-16T16:17:30;9.77;;;5.93;;
25868;SDS011;13688;53.154;18.136;2022-10-16T16:22:53;16.45;;;11.08;;
25868;SDS011;13688;53.154;18.136;2022-10-16T16:28:15;10.75;;;7.72;;
25868;SDS011;13688;53.154;18.136;2022-10-16T16:33:38;14.00;;;8.10;;
25868;SDS011;13688;53.154;18.136;2022-10-16T16:39:01;18.90;;;8.20;;
25868;SDS011;13688;53.154;18.136;2022-10-16T16:44:24;12.35;;;7.58;;
25868;SDS011;13688;53.154;18.136;2022-10-16T16:49:46;16.77;;;8.85;;
25868;SDS011;13688;53.154;18.136;2022-10-16T16:55:10;11.35;;;7.90;;
25868;SDS011;13688;53.154;18.136;2022-10-16T17:00:32;11.87;;;8.30;;
25868;SDS011;13688;53.154;18.136;2022-10-16T17:05:58;9.55;;;7.50;;
25868;SDS011;13688;53.154;18.136;2022-10-16T17:11:24;12.40;;;7.30;;
25868;SDS011;13688;53.154;18.136;2022-10-16T17:16:47;12.37;;;8.10;;
25868;SDS011;13688;53.154;18.136;2022-10-16T17:22:10;12.47;;;7.30;;
25868;SDS011;13688;53.154;18.136;2022-10-16T17:27:33;12.07;;;7.95;;
25868;SDS011;13688;53.154;18.136;2022-10-16T17:32:56;13.60;;;9.63;;
25868;SDS011;13688;53.154;18.136;2022-10-16T17:38:18;16.60;;;11.03;;
25868;SDS011;13688;53.154;18.136;2022-10-16T17:43:40;14.80;;;11.63;;
25868;SDS011;13688;53.154;18.136;2022-10-16T17:49:03;18.25;;;9.43;;
25868;SDS011;13688;53.154;18.136;2022-10-16T17:54:27;12.07;;;7.43;;
25868;SDS011;13688;53.154;18.136;2022-10-16T17:59:49;10.80;;;6.70;;
25868;SDS011;13688;53.154;18.136;2022-10-16T18:05:13;15.00;;;7.62;;
25868;SDS011;13688;53.154;18.136;2022-10-16T18:10:35;13.13;;;8.80;;
25868;SDS011;13688;53.154;18.136;2022-10-16T18:16:02;10.67;;;7.47;;
25868;SDS011;13688;53.154;18.136;2022-10-16T18:21:27;13.43;;;7.42;;
25868;SDS011;13688;53.154;18.136;2022-10-16T18:26:52;14.47;;;8.70;;
25868;SDS011;13688;53.154;18.136;2022-10-16T18:32:16;13.58;;;8.68;;
25868;SDS011;13688;53.154;18.136;2022-10-16T18:37:39;14.40;;;9.53;;
25868;SDS011;13688;53.154;18.136;2022-10-16T18:43:03;15.18;;;8.63;;
25868;SDS011;13688;53.154;18.136;2022-10-16T18:48:26;11.23;;;7.50;;
25868;SDS011;13688;53.154;18.136;2022-10-16T18:53:55;11.33;;;7.60;;
25868;SDS011;13688;53.154;18.136;2022-10-16T18:59:16;12.60;;;7.42;;
25868;SDS011;13688;53.154;18.136;2022-10-16T19:04:38;13.55;;;8.23;;
25868;SDS011;13688;53.154;18.136;2022-10-16T19:10:03;13.10;;;7.65;;
25868;SDS011;13688;53.154;18.136;2022-10-16T19:15:25;18.57;;;9.63;;
25868;SDS011;13688;53.154;18.136;2022-10-16T19:20:53;14.80;;;9.00;;
25868;SDS011;13688;53.154;18.136;2022-10-16T19:26:24;12.82;;;8.88;;
25868;SDS011;13688;53.154;18.136;2022-10-16T19:31:48;13.03;;;8.98;;
25868;SDS011;13688;53.154;18.136;2022-10-16T19:37:11;16.23;;;10.10;;
25868;SDS011;13688;53.154;18.136;2022-10-16T19:42:33;16.93;;;9.57;;
25868;SDS011;13688;53.154;18.136;2022-10-16T19:47:56;14.65;;;9.70;;
25868;SDS011;13688;53.154;18.136;2022-10-16T19:53:19;20.35;;;10.85;;
25868;SDS011;13688;53.154;18.136;2022-10-16T19:58:43;19.62;;;11.00;;
25868;SDS011;13688;53.154;18.136;2022-10-16T20:04:07;12.80;;;8.88;;
25868;SDS011;13688;53.154;18.136;2022-10-16T20:09:31;18.10;;;11.90;;
25868;SDS011;13688;53.154;18.136;2022-10-16T20:14:53;16.82;;;11.90;;
25868;SDS011;13688;53.154;18.136;2022-10-16T20:20:16;17.10;;;10.50;;
25868;SDS011;13688;53.154;18.136;2022-10-16T20:25:39;12.73;;;9.18;;
25868;SDS011;13688;53.154;18.136;2022-10-16T20:31:09;17.92;;;9.93;;
25868;SDS011;13688;53.154;18.136;2022-10-16T20:36:31;15.40;;;9.00;;
25868;SDS011;13688;53.154;18.136;2022-10-16T20:41:54;15.83;;;9.27;;
25868;SDS011;13688;53.154;18.136;2022-10-16T20:47:17;14.37;;;8.37;;
25868;SDS011;13688;53.154;18.136;2022-10-16T20:52:40;19.27;;;12.07;;
25868;SDS011;13688;53.154;18.136;2022-10-16T20:58:03;14.93;;;9.33;;
25868;SDS011;13688;53.154;18.136;2022-10-16T21:03:26;17.02;;;10.45;;
25868;SDS011;13688;53.154;18.136;2022-10-16T21:08:49;15.00;;;10.60;;
25868;SDS011;13688;53.154;18.136;2022-10-16T21:14:12;18.00;;;11.03;;
25868;SDS011;13688;53.154;18.136;2022-10-16T21:19:34;15.43;;;9.80;;
25868;SDS011;13688;53.154;18.136;2022-10-16T21:24:57;12.23;;;8.60;;
25868;SDS011;13688;53.154;18.136;2022-10-16T21:30:19;17.57;;;10.53;;
25868;SDS011;13688;53.154;18.136;2022-10-16T21:35:42;17.97;;;12.37;;
25868;SDS011;13688;53.154;18.136;2022-10-16T21:41:18;19.07;;;11.90;;
25868;SDS011;13688;53.154;18.136;2022-10-16T21:46:43;18.45;;;11.28;;
25868;SDS011;13688;53.154;18.136;2022-10-16T21:52:05;25.73;;;12.33;;
25868;SDS011;13688;53.154;18.136;2022-10-16T21:57:28;16.50;;;10.37;;
25868;SDS011;13688;53.154;18.136;2022-10-16T22:02:50;17.17;;;11.12;;
25868;SDS011;13688;53.154;18.136;2022-10-16T22:08:12;18.35;;;11.05;;
25868;SDS011;13688;53.154;18.136;2022-10-16T22:13:35;14.57;;;10.80;;
25868;SDS011;13688;53.154;18.136;2022-10-16T22:18:59;18.90;;;10.53;;
25868;SDS011;13688;53.154;18.136;2022-10-16T22:24:22;19.47;;;11.80;;
25868;SDS011;13688;53.154;18.136;2022-10-16T22:29:45;19.73;;;11.55;;
25868;SDS011;13688;53.154;18.136;2022-10-16T22:35:08;18.57;;;10.90;;
25868;SDS011;13688;53.154;18.136;2022-10-16T22:40:34;20.13;;;11.80;;
25868;SDS011;13688;53.154;18.136;2022-10-16T22:46:06;18.27;;;12.00;;
25868;SDS011;13688;53.154;18.136;2022-10-16T22:51:22;17.13;;;11.50;;
25868;SDS011;13688;53.154;18.136;2022-10-16T22:56:45;17.73;;;10.78;;
25868;SDS011;13688;53.154;18.136;2022-10-16T23:02:07;16.42;;;10.75;;
25868;SDS011;13688;53.154;18.136;2022-10-16T23:07:30;15.05;;;9.75;;
25868;SDS011;13688;53.154;18.136;2022-10-16T23:12:53;18.42;;;10.08;;
25868;SDS011;13688;53.154;18.136;2022-10-16T23:18:15;13.75;;;9.08;;
25868;SDS011;13688;53.154;18.136;2022-10-16T23:23:37;15.38;;;9.40;;
25868;SDS011;13688;53.154;18.136;2022-10-16T23:29:02;16.60;;;11.63;;
25868;SDS011;13688;53.154;18.136;2022-10-16T23:34:25;18.10;;;11.38;;
25868;SDS011;13688;53.154;18.136;2022-10-16T23:39:47;18.05;;;8.50;;
25868;SDS011;13688;53.154;18.136;2022-10-16T23:45:10;23.30;;;11.00;;
25868;SDS011;13688;53.154;18.136;2022-10-16T23:50:32;15.83;;;11.57;;
25868;SDS011;13688;53.154;18.136;2022-10-16T23:55:55;20.30;;;11.90;;
